Terminal Aerodrome Forecast
Issued by NWS Burlington, VT

Home | Current Version | Previous Version | Text Only | Print | Product List | Glossary On
Versions: 1 2 3 4 5 6 7 8 9 10 11 12 13 14 15 16 17 18
000
FTUS41 KBTV 251738
TAFBTV
TAF
KBTV 251738Z 2518/2618 33012KT 6SM BR OVC008
      TEMPO 2518/2522 OVC011
     FM252200 34009KT P6SM OVC020
     FM260000 35006KT P6SM BKN035
     FM260200 01005KT P6SM SKC
     FM261400 17008KT P6SM BKN250=

USA.gov is the U.S. government's official web portal to all federal, state and local government web resources and services.